createdAt,value
2022-12-25T00:01:51.549Z,10.90
2022-12-25T00:04:20.975Z,15.33
2022-12-25T00:06:49.001Z,11.47
2022-12-25T00:09:17.064Z,11.80
2022-12-25T00:11:45.846Z,14.57
2022-12-25T00:14:13.908Z,13.47
2022-12-25T00:16:42.040Z,9.90
2022-12-25T00:19:10.218Z,13.90
2022-12-25T00:21:39.722Z,11.60
2022-12-25T00:24:08.173Z,18.17
2022-12-25T00:26:36.231Z,18.77
2022-12-25T00:29:04.300Z,13.10
2022-12-25T00:31:32.380Z,11.63
2022-12-25T00:34:00.418Z,20.30
2022-12-25T00:36:28.444Z,12.53
2022-12-25T00:38:57.823Z,15.27
2022-12-25T00:41:39.813Z,12.87
2022-12-25T00:44:08.680Z,11.33
2022-12-25T00:46:37.480Z,13.80
2022-12-25T00:49:05.904Z,9.63
2022-12-25T00:51:33.939Z,10.87
2022-12-25T00:54:03.486Z,12.70
2022-12-25T00:56:31.556Z,11.27
2022-12-25T00:58:59.653Z,12.43
2022-12-25T01:01:27.808Z,9.83
2022-12-25T01:03:56.590Z,9.03
2022-12-25T01:06:24.750Z,13.97
2022-12-25T01:09:10.222Z,21.20
2022-12-25T01:11:39.875Z,15.20
2022-12-25T01:14:08.182Z,20.07
2022-12-25T01:16:36.867Z,10.70
2022-12-25T01:19:05.082Z,11.53
2022-12-25T01:21:33.450Z,10.43
2022-12-25T01:24:01.543Z,21.30
2022-12-25T01:26:29.715Z,11.00
2022-12-25T01:28:59.087Z,11.87
2022-12-25T01:31:27.167Z,14.50
2022-12-25T01:33:55.167Z,10.10
2022-12-25T01:36:25.296Z,19.30
2022-12-25T01:38:54.636Z,16.63
2022-12-25T01:41:24.840Z,18.00
2022-12-25T01:44:06.376Z,14.80
2022-12-25T01:46:34.730Z,15.20
2022-12-25T01:49:06.441Z,15.07
2022-12-25T01:51:38.237Z,16.53
2022-12-25T01:54:12.151Z,18.40
2022-12-25T01:56:41.456Z,14.93
2022-12-25T01:59:11.644Z,22.83
2022-12-25T02:01:39.867Z,13.50
2022-12-25T02:04:14.176Z,11.80
2022-12-25T02:06:42.793Z,19.13
2022-12-25T02:09:10.990Z,22.40
2022-12-25T02:11:56.531Z,24.13
2022-12-25T02:14:26.611Z,22.53
2022-12-25T02:17:12.298Z,21.07
2022-12-25T02:20:03.452Z,28.70
2022-12-25T02:22:40.847Z,17.30
2022-12-25T02:25:22.583Z,17.90
2022-12-25T02:28:05.602Z,22.33
2022-12-25T02:30:40.039Z,22.27
2022-12-25T02:33:32.485Z,20.20
2022-12-25T02:36:05.274Z,17.90
2022-12-25T02:38:37.803Z,25.17
2022-12-25T02:41:09.581Z,24.17
2022-12-25T02:43:59.841Z,30.10
2022-12-25T02:46:48.955Z,20.00
2022-12-25T02:49:37.921Z,24.10
2022-12-25T02:52:27.340Z,30.93
2022-12-25T02:55:17.810Z,39.17
2022-12-25T02:58:07.879Z,24.57
2022-12-25T03:01:00.091Z,18.67
2022-12-25T03:03:49.821Z,20.63
2022-12-25T03:06:36.769Z,27.40
2022-12-25T03:09:22.427Z,21.30
2022-12-25T03:11:57.381Z,34.20
2022-12-25T03:14:43.518Z,30.97
2022-12-25T03:17:13.160Z,22.17
2022-12-25T03:19:58.500Z,21.50
2022-12-25T03:22:46.970Z,21.73
2022-12-25T03:25:33.355Z,21.97
2022-12-25T03:28:02.139Z,21.20
2022-12-25T03:31:06.971Z,25.60
2022-12-25T03:34:09.904Z,24.73
2022-12-25T03:36:48.881Z,26.47
2022-12-25T03:39:41.385Z,30.20
2022-12-25T03:42:28.812Z,23.90
2022-12-25T03:45:22.343Z,22.27
2022-12-25T03:48:10.708Z,28.70
2022-12-25T03:51:01.898Z,20.73
2022-12-25T03:53:49.764Z,33.67
2022-12-25T03:56:36.956Z,28.40
2022-12-25T03:59:24.175Z,24.90
2022-12-25T04:02:10.906Z,18.37
2022-12-25T04:04:56.793Z,24.40
2022-12-25T04:07:43.627Z,25.70
2022-12-25T04:10:29.544Z,21.03
2022-12-25T04:13:15.156Z,25.13
2022-12-25T04:16:00.703Z,27.50
2022-12-25T04:18:46.536Z,27.13
2022-12-25T04:21:32.123Z,25.27
2022-12-25T04:24:18.809Z,26.70
2022-12-25T04:27:04.247Z,25.13
2022-12-25T04:29:49.684Z,19.83
2022-12-25T04:32:35.049Z,24.10
2022-12-25T04:35:20.449Z,21.50
2022-12-25T04:37:48.476Z,23.87
2022-12-25T04:40:18.196Z,17.73
2022-12-25T04:42:46.347Z,20.60
2022-12-25T04:45:14.392Z,21.77
2022-12-25T04:47:42.394Z,20.77
2022-12-25T04:50:10.680Z,25.77
2022-12-25T04:52:40.525Z,16.90
2022-12-25T04:55:10.659Z,25.23
2022-12-25T04:57:40.552Z,17.73
2022-12-25T05:00:09.915Z,25.57
2022-12-25T05:02:38.007Z,17.33
2022-12-25T05:05:06.538Z,19.33
2022-12-25T05:07:34.612Z,27.47
2022-12-25T05:10:02.625Z,16.90
2022-12-25T05:12:30.693Z,24.60
2022-12-25T05:15:00.042Z,21.40
2022-12-25T05:17:28.227Z,17.43
2022-12-25T05:19:56.307Z,16.50
2022-12-25T05:22:24.308Z,21.10
2022-12-25T05:24:53.354Z,17.00
2022-12-25T05:27:21.397Z,22.60
2022-12-25T05:29:49.393Z,17.53
2022-12-25T05:32:18.764Z,21.00
2022-12-25T05:34:46.773Z,21.70
2022-12-25T05:37:15.078Z,15.80
2022-12-25T05:39:43.115Z,16.57
2022-12-25T05:42:11.131Z,20.40
2022-12-25T05:44:39.166Z,12.23
2022-12-25T05:47:07.256Z,14.37
2022-12-25T05:49:36.639Z,14.63
2022-12-25T05:52:04.961Z,19.30
2022-12-25T05:54:33.010Z,12.33
2022-12-25T05:57:01.243Z,13.23
2022-12-25T05:59:30.621Z,15.80
2022-12-25T06:01:58.945Z,13.80
2022-12-25T06:04:27.467Z,13.73
2022-12-25T06:06:56.888Z,12.53
2022-12-25T06:09:24.906Z,13.07
2022-12-25T06:11:52.926Z,14.73
2022-12-25T06:14:20.951Z,10.23
2022-12-25T06:16:52.319Z,14.80
2022-12-25T06:19:20.396Z,11.70
2022-12-25T06:21:48.693Z,11.00
2022-12-25T06:24:21.441Z,11.03
2022-12-25T06:26:50.251Z,11.50
2022-12-25T06:29:18.312Z,12.37
2022-12-25T06:31:46.427Z,11.27
2022-12-25T06:34:16.381Z,10.77
2022-12-25T06:36:44.429Z,14.90
2022-12-25T06:39:12.417Z,12.07
2022-12-25T06:41:41.816Z,19.40
2022-12-25T06:44:10.308Z,15.10
2022-12-25T06:46:38.323Z,14.93
2022-12-25T06:49:06.366Z,18.50
2022-12-25T06:51:34.754Z,17.53
2022-12-25T06:54:04.250Z,14.07
2022-12-25T06:56:33.539Z,13.37
2022-12-25T06:59:04.576Z,11.63
2022-12-25T07:01:35.728Z,12.50
2022-12-25T07:04:05.906Z,16.67
2022-12-25T07:06:34.253Z,15.50
2022-12-25T07:09:02.296Z,17.77
2022-12-25T07:11:30.361Z,20.60
2022-12-25T07:13:58.405Z,18.60
2022-12-25T07:16:27.850Z,15.00
2022-12-25T07:18:55.897Z,17.77
2022-12-25T07:21:23.884Z,19.73
2022-12-25T07:23:51.876Z,16.20
2022-12-25T07:26:20.902Z,16.50
2022-12-25T07:28:48.940Z,17.17
2022-12-25T07:31:19.130Z,19.13
2022-12-25T07:33:48.573Z,18.50
2022-12-25T07:36:16.714Z,20.73
2022-12-25T07:38:45.101Z,21.60
2022-12-25T07:41:13.858Z,22.23
2022-12-25T07:43:42.557Z,20.07
2022-12-25T07:46:11.097Z,17.00
2022-12-25T07:48:39.282Z,15.33
2022-12-25T07:51:12.875Z,19.53
2022-12-25T07:53:41.464Z,13.50
2022-12-25T07:56:12.808Z,15.40
2022-12-25T07:58:41.101Z,22.60
2022-12-25T08:01:12.528Z,17.60
2022-12-25T08:03:40.776Z,18.27
2022-12-25T08:06:12.041Z,17.03
2022-12-25T08:08:42.122Z,16.40
2022-12-25T08:11:11.363Z,25.17
2022-12-25T08:13:39.565Z,16.13
2022-12-25T08:16:09.760Z,17.83
2022-12-25T08:18:38.660Z,16.50
2022-12-25T08:21:08.475Z,17.20
2022-12-25T08:23:39.691Z,11.83
2022-12-25T08:26:09.290Z,14.73
2022-12-25T08:28:37.857Z,18.10
2022-12-25T08:31:11.480Z,16.87
2022-12-25T08:33:40.092Z,15.83
2022-12-25T08:36:10.203Z,31.23
2022-12-25T08:38:40.168Z,12.27
2022-12-25T08:41:09.029Z,15.40
2022-12-25T08:43:37.460Z,14.23
2022-12-25T08:46:05.679Z,16.67
2022-12-25T08:48:34.068Z,16.27
2022-12-25T08:51:03.131Z,17.37
2022-12-25T08:53:31.171Z,17.37
2022-12-25T08:56:03.672Z,9.50
2022-12-25T08:58:31.717Z,11.03
2022-12-25T09:00:59.938Z,11.37
2022-12-25T09:03:28.393Z,12.67
2022-12-25T09:05:56.505Z,16.43
2022-12-25T09:08:24.548Z,16.10
2022-12-25T09:10:52.582Z,15.33
2022-12-25T09:13:21.994Z,16.20
2022-12-25T09:15:50.167Z,13.40
2022-12-25T09:18:18.195Z,16.83
2022-12-25T09:20:46.248Z,16.33
2022-12-25T09:23:14.573Z,14.70
2022-12-25T09:25:42.753Z,11.93
2022-12-25T09:28:10.796Z,10.87
2022-12-25T09:30:43.136Z,10.97
2022-12-25T09:33:13.470Z,15.57
2022-12-25T09:35:41.532Z,10.10
2022-12-25T09:38:09.593Z,12.70
2022-12-25T09:40:37.965Z,10.80
2022-12-25T09:43:06.317Z,11.80
2022-12-25T09:45:38.702Z,13.73
2022-12-25T09:48:13.234Z,9.07
2022-12-25T09:50:47.174Z,9.00
2022-12-25T09:53:19.945Z,10.17
2022-12-25T09:55:57.961Z,11.30
2022-12-25T09:58:25.994Z,14.80
2022-12-25T10:01:04.358Z,12.07
2022-12-25T10:03:47.993Z,16.83
2022-12-25T10:06:21.820Z,17.27
2022-12-25T10:09:06.895Z,15.87
2022-12-25T10:11:48.797Z,10.67
2022-12-25T10:14:26.792Z,14.13
2022-12-25T10:17:05.633Z,9.10
2022-12-25T10:19:45.536Z,10.30
2022-12-25T10:22:17.987Z,13.87
2022-12-25T10:24:50.244Z,14.10
2022-12-25T10:27:21.961Z,12.40
2022-12-25T10:29:54.819Z,16.17
2022-12-25T10:32:23.460Z,8.17
2022-12-25T10:34:52.941Z,11.13
2022-12-25T10:37:21.112Z,7.27
2022-12-25T10:39:49.072Z,8.17
2022-12-25T10:42:29.199Z,12.23
2022-12-25T10:44:59.413Z,7.60
2022-12-25T10:47:30.315Z,6.67
2022-12-25T10:50:01.017Z,10.23
2022-12-25T10:52:30.375Z,6.67
2022-12-25T10:54:58.458Z,3.50
2022-12-25T10:57:28.068Z,6.70
2022-12-25T10:59:57.617Z,6.43
2022-12-25T11:02:27.950Z,5.47
2022-12-25T11:05:05.469Z,4.00
2022-12-25T11:07:34.405Z,3.37
2022-12-25T11:10:06.216Z,5.30
2022-12-25T11:12:38.019Z,3.50
2022-12-25T11:15:27.927Z,8.50
2022-12-25T11:17:55.956Z,4.80
2022-12-25T11:20:26.165Z,4.37
2022-12-25T11:22:54.457Z,3.50
2022-12-25T11:25:24.422Z,5.27
2022-12-25T11:27:59.393Z,8.07
2022-12-25T11:30:29.481Z,5.10
2022-12-25T11:33:01.946Z,11.10
2022-12-25T11:35:33.198Z,6.50
2022-12-25T11:38:01.393Z,6.83
2022-12-25T11:40:35.560Z,7.87
2022-12-25T11:43:10.128Z,5.30
2022-12-25T11:45:41.396Z,6.50
2022-12-25T11:48:18.032Z,7.43
2022-12-25T11:50:52.611Z,9.20
2022-12-25T11:53:26.969Z,9.80
2022-12-25T11:55:57.839Z,8.87
2022-12-25T11:58:30.044Z,8.43
2022-12-25T12:01:01.211Z,5.97
2022-12-25T12:03:32.049Z,8.07
2022-12-25T12:06:05.886Z,6.57
2022-12-25T12:08:36.317Z,7.63
2022-12-25T12:11:19.188Z,4.90
2022-12-25T12:14:02.550Z,11.00
2022-12-25T12:16:31.050Z,7.30
2022-12-25T12:18:59.220Z,9.50
2022-12-25T12:21:30.979Z,6.27
2022-12-25T12:24:05.347Z,7.23
2022-12-25T12:26:37.957Z,9.83
2022-12-25T12:29:09.659Z,10.20
2022-12-25T12:31:39.502Z,4.97
2022-12-25T12:34:15.370Z,6.17
2022-12-25T12:36:44.883Z,5.53
2022-12-25T12:39:23.489Z,4.23
2022-12-25T12:41:52.270Z,4.27
2022-12-25T12:44:23.489Z,6.07
2022-12-25T12:46:53.823Z,6.20
2022-12-25T12:49:25.690Z,5.53
2022-12-25T12:52:07.210Z,5.23
2022-12-25T12:54:53.309Z,7.30
2022-12-25T12:57:25.288Z,10.30
2022-12-25T12:59:53.561Z,6.03
2022-12-25T13:02:47.037Z,5.50
2022-12-25T13:05:20.242Z,4.07
2022-12-25T13:07:59.716Z,6.83
2022-12-25T13:10:33.212Z,9.00
2022-12-25T13:13:03.978Z,4.23
2022-12-25T13:15:35.758Z,5.60
2022-12-25T13:18:06.638Z,5.57
2022-12-25T13:20:46.393Z,5.33
2022-12-25T13:23:24.664Z,8.53
2022-12-25T13:25:54.011Z,7.73
2022-12-25T13:28:29.619Z,5.60
2022-12-25T13:31:06.481Z,11.90
2022-12-25T13:33:35.439Z,14.00
2022-12-25T13:36:04.203Z,5.70
2022-12-25T13:38:33.610Z,7.47
2022-12-25T13:41:19.037Z,4.20
2022-12-25T13:43:48.005Z,7.53
2022-12-25T13:46:16.840Z,8.53
2022-12-25T13:48:44.865Z,10.33
2022-12-25T13:51:17.345Z,8.07
2022-12-25T13:53:46.749Z,9.10
2022-12-25T13:56:16.988Z,16.87
2022-12-25T13:58:47.729Z,29.20
2022-12-25T14:01:18.487Z,14.80
2022-12-25T14:03:48.729Z,11.17
2022-12-25T14:06:20.711Z,7.10
2022-12-25T14:08:50.743Z,9.60
2022-12-25T14:11:22.204Z,30.40
2022-12-25T14:13:53.371Z,25.73
2022-12-25T14:16:22.511Z,13.20
2022-12-25T14:18:55.967Z,20.50
2022-12-25T14:21:29.682Z,14.63
2022-12-25T14:23:59.532Z,10.53
2022-12-25T14:26:30.209Z,11.70
2022-12-25T14:29:13.970Z,10.93
2022-12-25T14:31:46.307Z,6.67
2022-12-25T14:34:18.931Z,8.83
2022-12-25T14:36:47.264Z,8.97
2022-12-25T14:39:31.828Z,10.60
2022-12-25T14:42:00.882Z,9.80
2022-12-25T14:44:34.127Z,8.33
2022-12-25T14:47:13.244Z,7.10
2022-12-25T14:49:41.289Z,13.30
2022-12-25T14:52:16.375Z,9.80
2022-12-25T14:54:48.558Z,11.30
2022-12-25T14:57:20.916Z,12.40
2022-12-25T14:59:57.249Z,10.53
2022-12-25T15:02:25.824Z,7.30
2022-12-25T15:04:54.438Z,9.57
2022-12-25T15:07:29.067Z,11.93
2022-12-25T15:10:27.313Z,10.93
2022-12-25T15:12:46.613Z,6.23
2022-12-25T15:15:14.612Z,9.13
2022-12-25T15:17:43.173Z,11.63
2022-12-25T15:20:13.127Z,6.80
2022-12-25T15:23:10.287Z,6.50
2022-12-25T15:25:32.616Z,8.43
2022-12-25T15:28:00.724Z,7.40
2022-12-25T15:30:30.341Z,7.93
2022-12-25T15:32:58.380Z,7.90
2022-12-25T15:35:26.385Z,13.50
2022-12-25T15:37:54.432Z,10.03
2022-12-25T15:40:22.448Z,8.27
2022-12-25T15:42:56.497Z,9.63
2022-12-25T15:45:27.093Z,10.37
2022-12-25T15:47:55.307Z,9.47
2022-12-25T15:50:23.801Z,11.30
2022-12-25T15:52:51.967Z,6.37
2022-12-25T15:55:20.119Z,6.90
2022-12-25T15:57:48.928Z,6.80
2022-12-25T16:00:22.595Z,10.10
2022-12-25T16:02:51.199Z,6.90
2022-12-25T16:05:19.341Z,6.83
2022-12-25T16:07:47.389Z,8.83
2022-12-25T16:10:18.465Z,7.57
2022-12-25T16:12:47.244Z,7.00
2022-12-25T16:15:16.543Z,9.10
2022-12-25T16:17:46.015Z,7.53
2022-12-25T16:20:14.964Z,9.83
2022-12-25T16:22:43.082Z,9.47
2022-12-25T16:25:16.729Z,10.90
2022-12-25T16:27:44.993Z,7.37
2022-12-25T16:30:15.733Z,12.27
2022-12-25T16:32:45.728Z,10.43
2022-12-25T16:35:13.778Z,14.00
2022-12-25T16:37:41.912Z,12.63
2022-12-25T16:40:11.192Z,15.50
2022-12-25T16:42:39.552Z,26.17
2022-12-25T16:45:08.716Z,15.27
2022-12-25T16:47:36.862Z,15.83
2022-12-25T16:50:08.095Z,11.93
2022-12-25T16:52:37.131Z,10.93
2022-12-25T16:55:06.070Z,8.47
2022-12-25T16:57:34.354Z,9.33
2022-12-25T17:00:02.436Z,7.90
2022-12-25T17:02:30.597Z,11.40
2022-12-25T17:05:00.383Z,6.47
2022-12-25T17:07:29.772Z,9.40
2022-12-25T17:09:57.990Z,11.80
2022-12-25T17:12:26.097Z,6.20
2022-12-25T17:14:54.198Z,9.10
2022-12-25T17:17:22.624Z,10.77
2022-12-25T17:19:50.683Z,7.20
2022-12-25T17:22:18.709Z,9.70
2022-12-25T17:24:48.128Z,9.10
2022-12-25T17:27:16.178Z,11.50
2022-12-25T17:29:45.152Z,9.37
2022-12-25T17:32:13.272Z,8.13
2022-12-25T17:34:41.401Z,8.20
2022-12-25T17:37:09.564Z,7.80
2022-12-25T17:39:38.557Z,7.77
2022-12-25T17:42:08.087Z,8.13
2022-12-25T17:44:36.181Z,6.63
2022-12-25T17:47:04.385Z,9.70
2022-12-25T17:49:32.486Z,15.43
2022-12-25T17:52:00.499Z,17.30
2022-12-25T17:54:28.504Z,15.47
2022-12-25T17:56:56.527Z,17.33
2022-12-25T17:59:29.416Z,24.43
2022-12-25T18:01:57.524Z,15.30
2022-12-25T18:04:25.651Z,16.20
2022-12-25T18:06:53.804Z,10.17
2022-12-25T18:09:21.818Z,14.83
2022-12-25T18:11:49.886Z,13.80
2022-12-25T18:14:18.269Z,12.13
2022-12-25T18:16:48.228Z,8.83
2022-12-25T18:19:18.305Z,10.83
2022-12-25T18:21:46.475Z,11.50
2022-12-25T18:24:14.511Z,8.80
2022-12-25T18:26:42.530Z,7.57
2022-12-25T18:29:11.051Z,6.93
2022-12-25T18:31:39.098Z,6.90
2022-12-25T18:34:08.475Z,4.97
2022-12-25T18:36:36.904Z,5.20
2022-12-25T18:39:05.125Z,4.87
2022-12-25T18:41:54.713Z,6.50
2022-12-25T18:44:25.449Z,8.00
2022-12-25T18:46:54.009Z,8.27
2022-12-25T18:49:23.358Z,4.53
2022-12-25T18:51:51.428Z,4.80
2022-12-25T18:54:19.481Z,4.60
2022-12-25T18:56:52.923Z,6.00
2022-12-25T18:59:21.338Z,5.30
2022-12-25T19:01:49.567Z,7.10
2022-12-25T19:04:17.698Z,4.27
2022-12-25T19:06:49.166Z,4.10
2022-12-25T19:09:17.241Z,6.83
2022-12-25T19:11:46.773Z,8.27
2022-12-25T19:14:15.704Z,5.93
2022-12-25T19:16:44.232Z,3.90
2022-12-25T19:19:13.241Z,10.93
2022-12-25T19:21:41.625Z,12.27
2022-12-25T19:24:11.185Z,6.47
2022-12-25T19:26:39.251Z,9.13
2022-12-25T19:29:07.347Z,9.77
2022-12-25T19:31:35.508Z,5.37
2022-12-25T19:34:03.529Z,9.10
2022-12-25T19:36:32.388Z,7.83
2022-12-25T19:39:00.492Z,10.83
2022-12-25T19:41:29.929Z,6.87
2022-12-25T19:43:58.469Z,6.30
2022-12-25T19:46:28.872Z,10.80
2022-12-25T19:48:58.978Z,4.73
2022-12-25T19:51:29.635Z,4.97
2022-12-25T19:53:57.936Z,9.83
2022-12-25T19:56:27.082Z,6.37
2022-12-25T19:58:56.582Z,7.40
2022-12-25T20:01:27.081Z,6.30
2022-12-25T20:03:55.880Z,10.07
2022-12-25T20:06:26.225Z,5.17
2022-12-25T20:08:56.107Z,6.57
2022-12-25T20:11:26.256Z,6.37
2022-12-25T20:13:56.339Z,4.53
2022-12-25T20:16:25.156Z,8.97
2022-12-25T20:18:54.216Z,7.67
2022-12-25T20:21:23.824Z,6.07
2022-12-25T20:23:53.966Z,4.67
2022-12-25T20:26:24.171Z,6.03
2022-12-25T20:28:52.653Z,5.00
2022-12-25T20:31:24.097Z,5.30
2022-12-25T20:33:52.209Z,6.53
2022-12-25T20:36:20.749Z,6.27
2022-12-25T20:38:49.909Z,4.57
2022-12-25T20:41:28.988Z,4.43
2022-12-25T20:43:58.224Z,7.70
2022-12-25T20:46:28.027Z,6.13
2022-12-25T20:48:56.173Z,4.57
2022-12-25T20:51:26.041Z,5.00
2022-12-25T20:53:55.255Z,6.43
2022-12-25T20:56:25.303Z,8.80
2022-12-25T20:58:56.141Z,5.60
2022-12-25T21:01:24.699Z,5.30
2022-12-25T21:03:54.826Z,5.00
2022-12-25T21:06:23.737Z,6.27
2022-12-25T21:08:51.778Z,6.00
2022-12-25T21:11:21.233Z,29.27
2022-12-25T21:13:49.699Z,6.23
2022-12-25T21:16:19.837Z,4.60
2022-12-25T21:18:48.268Z,6.47
2022-12-25T21:21:17.731Z,6.77
2022-12-25T21:23:46.537Z,9.13
2022-12-25T21:26:19.396Z,6.23
2022-12-25T21:28:48.251Z,4.30
2022-12-25T21:31:16.662Z,5.93
2022-12-25T21:33:53.376Z,4.77
2022-12-25T21:36:26.939Z,5.77
2022-12-25T21:38:57.160Z,6.20
2022-12-25T21:41:26.293Z,9.40
2022-12-25T21:43:55.334Z,6.67
2022-12-25T21:46:23.766Z,11.43
2022-12-25T21:48:51.946Z,8.37
2022-12-25T21:51:39.501Z,4.80
2022-12-25T21:54:09.379Z,17.63
2022-12-25T21:56:44.122Z,5.30
2022-12-25T21:59:15.062Z,4.80
2022-12-25T22:01:43.814Z,6.77
2022-12-25T22:04:12.842Z,5.40
2022-12-25T22:06:58.890Z,6.00
2022-12-25T22:09:28.397Z,5.70
2022-12-25T22:12:13.877Z,5.37
2022-12-25T22:14:56.720Z,6.57
2022-12-25T22:17:44.813Z,5.50
2022-12-25T22:20:15.920Z,6.83
2022-12-25T22:22:44.254Z,5.00
2022-12-25T22:25:14.517Z,4.80
2022-12-25T22:27:44.135Z,6.30
2022-12-25T22:30:14.622Z,5.63
2022-12-25T22:32:42.985Z,7.03
2022-12-25T22:35:12.600Z,5.13
2022-12-25T22:37:41.052Z,6.20
2022-12-25T22:40:10.911Z,4.27
2022-12-25T22:42:40.389Z,6.70
2022-12-25T22:45:09.681Z,4.50
2022-12-25T22:47:37.753Z,6.00
2022-12-25T22:50:06.837Z,4.60
2022-12-25T22:52:34.994Z,4.33
2022-12-25T22:55:04.104Z,4.87
2022-12-25T22:57:32.143Z,6.63
2022-12-25T23:00:01.715Z,4.27
2022-12-25T23:02:30.175Z,3.90
2022-12-25T23:04:58.668Z,4.70
2022-12-25T23:07:26.739Z,4.60
2022-12-25T23:09:54.781Z,5.47
2022-12-25T23:12:40.213Z,4.40
2022-12-25T23:15:10.493Z,2.73
2022-12-25T23:17:56.085Z,7.83
2022-12-25T23:20:41.542Z,8.03
2022-12-25T23:23:32.703Z,5.00
2022-12-25T23:26:09.637Z,5.43
2022-12-25T23:28:56.437Z,7.07
2022-12-25T23:31:29.759Z,4.47
2022-12-25T23:33:58.401Z,4.23
2022-12-25T23:36:26.544Z,5.60
2022-12-25T23:38:54.798Z,6.60
2022-12-25T23:41:23.338Z,2.67
2022-12-25T23:43:51.542Z,3.80
2022-12-25T23:46:19.686Z,5.90
2022-12-25T23:48:49.044Z,4.03
2022-12-25T23:51:18.619Z,3.00
2022-12-25T23:53:46.632Z,5.90
2022-12-25T23:56:14.815Z,10.30
2022-12-25T23:58:45.120Z,5.00
